Buena Vista, Colorado
Current Conditions -  °F | °C
As of 7:35 AM on Saturday 22 Nov 2014 (Local Time) from KAEJ Reporting Station
Clear Clear  
Wind Chill: 24°   Ceiling: Unl
Heat Index: 24°   Visibility: 10mi
Dew Point: 14°   Wind: 0mph
Humidity: 66%   Direction: NA
Pressure: 30"   Gusts: NA
Location:  38.84°N, 106.13°W
Report Text: KAEJ 221435Z AUTO 00000KT 10SM CLR M04/M10 A3000 RMK AO2 T10441099
Loading
Personal Weather Stations






























Interactive Weather Map New forecast layout! Learn more

10-Day Weather Forecast

Advertisements
Track Severe Weather on mobile